createdAt,value
2023-02-27T00:02:06.470Z,1.40
2023-02-27T00:06:07.543Z,1.30
2023-02-27T00:10:10.826Z,1.30
2023-02-27T00:14:13.878Z,1.30
2023-02-27T00:18:15.431Z,1.20
2023-02-27T00:22:16.585Z,1.20
2023-02-27T00:26:17.671Z,1.20
2023-02-27T00:30:18.899Z,1.10
2023-02-27T00:34:20.103Z,1.00
2023-02-27T00:38:21.254Z,1.10
2023-02-27T00:42:22.516Z,1.10
2023-02-27T00:46:23.768Z,1.00
2023-02-27T00:50:24.911Z,1.10
2023-02-27T00:54:26.204Z,1.00
2023-02-27T00:58:27.380Z,0.90
2023-02-27T01:02:28.621Z,0.90
2023-02-27T01:06:29.802Z,0.80
2023-02-27T01:10:31.128Z,0.90
2023-02-27T01:14:32.392Z,0.80
2023-02-27T01:18:33.567Z,1.00
2023-02-27T01:22:35.548Z,0.80
2023-02-27T01:26:36.701Z,0.80
2023-02-27T01:30:38.001Z,1.00
2023-02-27T01:34:39.089Z,0.90
2023-02-27T01:38:41.147Z,0.90
2023-02-27T01:42:42.298Z,0.90
2023-02-27T01:46:43.638Z,1.00
2023-02-27T01:50:54.388Z,1.00
2023-02-27T01:54:56.784Z,0.90
2023-02-27T01:59:02.542Z,0.80
2023-02-27T02:03:13.728Z,1.00
2023-02-27T02:07:18.225Z,0.80
2023-02-27T02:11:20.562Z,0.60
2023-02-27T02:15:25.414Z,0.70
2023-02-27T02:19:36.006Z,0.80
2023-02-27T02:23:46.774Z,0.70
2023-02-27T02:28:25.761Z,0.50
2023-02-27T02:32:59.815Z,0.60
2023-02-27T02:37:19.555Z,0.40
2023-02-27T02:41:41.514Z,0.50
2023-02-27T02:45:58.343Z,0.50
2023-02-27T02:50:12.342Z,0.50
2023-02-27T02:54:43.452Z,0.40
2023-02-27T02:59:06.453Z,0.50
2023-02-27T03:03:17.663Z,0.40
2023-02-27T03:07:31.551Z,0.40
2023-02-27T03:11:36.562Z,0.30
2023-02-27T03:15:53.351Z,0.30
2023-02-27T03:20:01.375Z,0.30
2023-02-27T03:24:05.906Z,0.30
2023-02-27T03:28:10.432Z,0.20
2023-02-27T03:32:24.085Z,0.30
2023-02-27T03:36:29.065Z,0.30
2023-02-27T03:40:34.021Z,0.30
2023-02-27T03:45:09.711Z,0.20
2023-02-27T03:49:10.903Z,0.20
2023-02-27T03:53:15.886Z,0.10
2023-02-27T03:57:17.053Z,0.00
2023-02-27T04:01:18.513Z,0.10
2023-02-27T04:05:20.674Z,0.10
2023-02-27T04:09:43.558Z,0.30
2023-02-27T04:14:00.310Z,0.30
2023-02-27T04:18:25.201Z,0.30
2023-02-27T04:22:48.033Z,0.30
2023-02-27T04:26:53.014Z,0.30
2023-02-27T04:31:01.595Z,0.10
2023-02-27T04:35:09.583Z,0.10
2023-02-27T04:39:17.370Z,0.20
2023-02-27T04:43:21.345Z,0.10
2023-02-27T04:47:24.896Z,0.20
2023-02-27T04:51:45.605Z,0.40
2023-02-27T04:55:50.939Z,0.40
2023-02-27T04:59:55.027Z,0.50
2023-02-27T05:04:00.307Z,0.20
2023-02-27T05:08:07.400Z,0.10
2023-02-27T05:12:18.401Z,0.10
2023-02-27T05:16:39.974Z,0.00
2023-02-27T05:20:50.742Z,0.00
2023-02-27T05:25:14.050Z,0.10
2023-02-27T05:29:37.078Z,0.10
2023-02-27T05:33:42.136Z,0.10
2023-02-27T05:38:02.323Z,0.00
2023-02-27T05:42:13.061Z,0.00
2023-02-27T05:46:17.955Z,0.00
2023-02-27T05:50:22.773Z,0.00
2023-02-27T05:54:45.434Z,0.10
2023-02-27T05:58:56.056Z,0.00
2023-02-27T06:02:57.335Z,-0.10
2023-02-27T06:06:58.540Z,-0.20
2023-02-27T06:10:59.811Z,-0.10
2023-02-27T06:15:00.983Z,-0.30
2023-02-27T06:19:04.608Z,-0.30
2023-02-27T06:23:05.947Z,-0.40
2023-02-27T06:27:07.122Z,-0.40
2023-02-27T06:31:08.394Z,-0.50
2023-02-27T06:35:09.883Z,-0.50
2023-02-27T06:39:11.339Z,-0.40
2023-02-27T06:43:14.101Z,-0.30
2023-02-27T06:47:15.251Z,-0.30
2023-02-27T06:51:16.393Z,-0.20
2023-02-27T06:55:19.735Z,-0.20
2023-02-27T06:59:20.880Z,-0.20
2023-02-27T07:03:22.062Z,-0.10
2023-02-27T07:07:33.090Z,-0.10
2023-02-27T07:11:26.248Z,0.00
2023-02-27T07:15:27.452Z,0.00
2023-02-27T07:19:28.638Z,0.20
2023-02-27T07:23:29.804Z,0.40
2023-02-27T07:27:30.975Z,0.60
2023-02-27T07:31:32.771Z,0.80
2023-02-27T07:35:34.100Z,1.20
2023-02-27T07:39:35.299Z,1.40
2023-02-27T07:43:36.454Z,1.80
2023-02-27T07:47:37.646Z,2.00
2023-02-27T07:51:38.999Z,2.10
2023-02-27T07:55:40.254Z,2.40
2023-02-27T07:59:41.378Z,2.50
2023-02-27T08:03:42.541Z,2.80
2023-02-27T08:07:43.759Z,3.00
2023-02-27T08:11:45.834Z,3.50
2023-02-27T08:15:47.894Z,3.40
2023-02-27T08:19:49.025Z,3.70
2023-02-27T08:23:50.077Z,4.00
2023-02-27T08:27:51.292Z,4.00
2023-02-27T08:31:52.543Z,4.40
2023-02-27T08:35:54.917Z,4.60
2023-02-27T08:39:56.159Z,4.60
2023-02-27T08:43:57.416Z,4.60
2023-02-27T08:47:58.614Z,4.40
2023-02-27T08:52:00.531Z,4.50
2023-02-27T08:56:01.741Z,4.30
2023-02-27T09:00:07.474Z,4.30
2023-02-27T09:04:09.008Z,4.40
2023-02-27T09:08:10.236Z,4.80
2023-02-27T09:12:11.570Z,4.80
2023-02-27T09:16:12.898Z,4.60
2023-02-27T09:20:15.092Z,4.70
2023-02-27T09:24:20.091Z,4.50
2023-02-27T09:28:20.741Z,4.80
2023-02-27T09:32:22.749Z,5.00
2023-02-27T09:36:24.128Z,5.10
2023-02-27T09:40:28.590Z,4.90
2023-02-27T09:44:47.048Z,5.00
2023-02-27T09:48:53.738Z,5.00
2023-02-27T09:52:54.842Z,5.20
2023-02-27T09:57:02.815Z,5.30
2023-02-27T10:01:26.168Z,5.30
2023-02-27T10:05:49.086Z,5.30
2023-02-27T10:09:57.033Z,4.90
2023-02-27T10:14:18.834Z,4.80
2023-02-27T10:18:30.395Z,5.20
2023-02-27T10:22:33.446Z,5.30
2023-02-27T10:26:41.396Z,5.40
2023-02-27T10:30:55.353Z,5.90
2023-02-27T10:35:18.888Z,5.90
2023-02-27T10:39:21.950Z,5.90
2023-02-27T10:43:23.364Z,6.50
2023-02-27T10:47:25.630Z,6.40
2023-02-27T10:51:32.652Z,6.20
2023-02-27T10:55:37.693Z,5.90
2023-02-27T10:59:41.450Z,5.60
2023-02-27T11:03:43.833Z,5.40
2023-02-27T11:07:45.156Z,5.50
2023-02-27T11:11:46.404Z,5.60
2023-02-27T11:16:06.401Z,5.10
2023-02-27T11:20:20.489Z,4.90
2023-02-27T11:24:21.629Z,5.10
2023-02-27T11:28:29.583Z,5.60
2023-02-27T11:32:47.994Z,6.20
2023-02-27T11:36:53.773Z,6.20
2023-02-27T11:41:01.164Z,6.40
2023-02-27T11:45:08.826Z,6.00
2023-02-27T11:49:23.081Z,6.50
2023-02-27T11:53:43.031Z,6.80
2023-02-27T11:57:47.757Z,6.50
2023-02-27T12:01:58.741Z,6.40
2023-02-27T12:06:06.749Z,6.20
2023-02-27T12:10:20.183Z,6.30
2023-02-27T12:14:28.111Z,6.30
2023-02-27T12:18:42.687Z,6.80
2023-02-27T12:22:47.953Z,6.90
2023-02-27T12:26:58.518Z,7.30
2023-02-27T12:31:06.571Z,7.10
2023-02-27T12:35:20.103Z,6.90
2023-02-27T12:39:23.805Z,7.00
2023-02-27T12:43:28.763Z,6.40
2023-02-27T12:47:40.019Z,7.00
2023-02-27T12:51:51.278Z,7.20
2023-02-27T12:55:56.354Z,7.50
2023-02-27T13:00:07.712Z,7.50
2023-02-27T13:04:12.704Z,7.10
2023-02-27T13:08:26.790Z,7.20
2023-02-27T13:12:40.462Z,6.80
2023-02-27T13:16:45.154Z,7.00
2023-02-27T13:20:50.211Z,6.90
2023-02-27T13:24:54.155Z,7.30
2023-02-27T13:28:56.726Z,7.00
2023-02-27T13:33:13.631Z,6.60
2023-02-27T13:37:14.782Z,6.60
2023-02-27T13:41:31.241Z,6.30
2023-02-27T13:45:55.009Z,6.40
2023-02-27T13:50:01.896Z,6.60
2023-02-27T13:54:15.958Z,6.90
2023-02-27T13:58:18.957Z,6.90
2023-02-27T14:02:59.887Z,6.60
2023-02-27T14:07:12.842Z,6.20
2023-02-27T14:11:23.381Z,5.80
2023-02-27T14:15:38.199Z,5.90
2023-02-27T14:19:43.241Z,5.90
2023-02-27T14:23:46.000Z,6.50
2023-02-27T14:27:50.669Z,6.20
2023-02-27T14:31:53.862Z,6.50
2023-02-27T14:36:01.785Z,6.70
2023-02-27T14:40:07.368Z,6.10
2023-02-27T14:44:21.555Z,6.20
2023-02-27T14:48:26.562Z,6.20
2023-02-27T14:52:30.347Z,6.30
2023-02-27T14:56:33.330Z,6.20
2023-02-27T15:00:43.679Z,6.10
2023-02-27T15:04:45.434Z,5.90
2023-02-27T15:08:53.456Z,5.90
2023-02-27T15:12:54.665Z,6.10
2023-02-27T15:16:57.033Z,6.00
2023-02-27T15:20:58.506Z,6.10
2023-02-27T15:25:00.595Z,5.90
2023-02-27T15:29:03.909Z,6.00
2023-02-27T15:33:08.885Z,5.80
2023-02-27T15:37:19.872Z,5.80
2023-02-27T15:41:21.269Z,5.80
2023-02-27T15:45:26.289Z,5.60
2023-02-27T15:49:27.643Z,5.70
2023-02-27T15:53:30.149Z,5.70
2023-02-27T15:57:32.339Z,5.80
2023-02-27T16:01:34.112Z,5.70
2023-02-27T16:05:38.382Z,5.70
2023-02-27T16:09:40.145Z,5.70
2023-02-27T16:13:41.298Z,5.60
2023-02-27T16:18:01.354Z,5.60
2023-02-27T16:22:17.210Z,5.40
2023-02-27T16:26:30.285Z,5.20
2023-02-27T16:30:31.826Z,5.30
2023-02-27T16:34:45.131Z,5.10
2023-02-27T16:38:38.567Z,5.20
2023-02-27T16:42:40.239Z,5.10
2023-02-27T16:46:41.411Z,4.90
2023-02-27T16:50:43.255Z,5.00
2023-02-27T16:54:44.432Z,5.10
2023-02-27T16:58:46.185Z,5.10
2023-02-27T17:02:47.554Z,4.80
2023-02-27T17:06:50.098Z,4.70
2023-02-27T17:10:52.733Z,4.70
2023-02-27T17:14:53.992Z,4.70
2023-02-27T17:18:55.136Z,4.60
2023-02-27T17:22:57.313Z,4.70
2023-02-27T17:27:01.032Z,4.60
2023-02-27T17:31:09.115Z,4.70
2023-02-27T17:35:11.081Z,4.50
2023-02-27T17:39:13.533Z,4.40
2023-02-27T17:43:14.880Z,4.30
2023-02-27T17:47:16.486Z,4.60
2023-02-27T17:51:18.721Z,4.40
2023-02-27T17:55:21.013Z,4.40
2023-02-27T17:59:22.536Z,4.40
2023-02-27T18:03:24.320Z,4.30
2023-02-27T18:07:26.280Z,4.30
2023-02-27T18:11:27.524Z,4.10
2023-02-27T18:15:29.038Z,4.00
2023-02-27T18:19:32.392Z,4.00
2023-02-27T18:23:33.259Z,4.00
2023-02-27T18:27:34.515Z,4.00
2023-02-27T18:31:38.571Z,4.00
2023-02-27T18:35:39.749Z,4.00
2023-02-27T18:39:42.114Z,4.00
2023-02-27T18:43:43.776Z,4.00
2023-02-27T18:47:45.224Z,4.00
2023-02-27T18:51:46.762Z,4.00
2023-02-27T18:55:47.935Z,4.00
2023-02-27T18:59:49.107Z,3.90
2023-02-27T19:03:52.599Z,3.80
2023-02-27T19:07:53.743Z,3.90
2023-02-27T19:11:54.914Z,3.90
2023-02-27T19:15:56.521Z,4.00
2023-02-27T19:19:57.689Z,3.80
2023-02-27T19:24:00.086Z,3.70
2023-02-27T19:28:01.938Z,3.70
2023-02-27T19:32:03.660Z,3.70
2023-02-27T19:36:10.353Z,3.60
2023-02-27T19:40:13.181Z,3.60
2023-02-27T19:44:14.354Z,3.60
2023-02-27T19:48:17.454Z,3.50
2023-02-27T19:52:18.858Z,3.50
2023-02-27T19:56:22.305Z,3.50
2023-02-27T20:00:23.644Z,3.40
2023-02-27T20:04:24.923Z,3.50
2023-02-27T20:08:26.288Z,3.50
2023-02-27T20:12:27.921Z,3.50
2023-02-27T20:16:31.837Z,3.40
2023-02-27T20:20:33.210Z,3.30
2023-02-27T20:24:34.476Z,3.20
2023-02-27T20:28:36.898Z,3.10
2023-02-27T20:32:38.115Z,3.00
2023-02-27T20:36:41.409Z,3.00
2023-02-27T20:40:42.562Z,3.10
2023-02-27T20:44:43.847Z,3.00
2023-02-27T20:48:45.187Z,3.10
2023-02-27T20:52:46.401Z,3.20
2023-02-27T20:56:50.825Z,3.00
2023-02-27T21:00:52.369Z,3.00
2023-02-27T21:04:53.677Z,2.80
2023-02-27T21:08:56.170Z,2.80
2023-02-27T21:12:57.896Z,2.80
2023-02-27T21:17:00.047Z,2.90
2023-02-27T21:21:09.758Z,2.80
2023-02-27T21:25:13.790Z,2.80
2023-02-27T21:29:18.540Z,2.90
2023-02-27T21:33:21.906Z,2.80
2023-02-27T21:37:23.170Z,2.80
2023-02-27T21:41:26.999Z,2.70
2023-02-27T21:45:28.323Z,2.90
2023-02-27T21:49:30.760Z,2.70
2023-02-27T21:53:32.874Z,2.70
2023-02-27T21:57:34.255Z,2.80
2023-02-27T22:01:36.444Z,2.60
2023-02-27T22:05:41.495Z,2.60
2023-02-27T22:09:43.068Z,2.50
2023-02-27T22:13:44.384Z,2.50
2023-02-27T22:17:45.645Z,2.50
2023-02-27T22:21:47.305Z,2.50
2023-02-27T22:26:00.861Z,2.70
2023-02-27T22:30:02.268Z,2.60
2023-02-27T22:34:07.132Z,2.50
2023-02-27T22:38:08.370Z,2.50
2023-02-27T22:42:09.482Z,2.50
2023-02-27T22:46:13.616Z,2.60
2023-02-27T22:50:15.530Z,2.50
2023-02-27T22:54:17.895Z,2.40
2023-02-27T22:58:19.166Z,2.30
2023-02-27T23:02:20.420Z,2.30
2023-02-27T23:06:24.888Z,2.30
2023-02-27T23:10:26.123Z,2.30
2023-02-27T23:14:27.551Z,2.00
2023-02-27T23:18:28.805Z,2.10
2023-02-27T23:22:31.876Z,2.10
2023-02-27T23:26:38.254Z,2.10
2023-02-27T23:30:39.505Z,2.10
2023-02-27T23:34:49.417Z,2.00
2023-02-27T23:38:45.534Z,2.00
2023-02-27T23:42:47.200Z,2.10
2023-02-27T23:46:48.984Z,2.10
2023-02-27T23:50:50.234Z,2.10
2023-02-27T23:54:51.323Z,2.10
2023-02-27T23:58:58.590Z,2.00
